sensor_id;sensor_type;location;lat;lon;timestamp;pressure;altitude;pressure_sealevel;temperature;humidity
64158;BME280;50449;51.528;5.076;2023-11-22T00:00:39;102647.13;;;10.61;65.95
64158;BME280;50449;51.528;5.076;2023-11-22T00:03:04;102642.72;;;10.60;66.39
64158;BME280;50449;51.528;5.076;2023-11-22T00:05:30;102639.38;;;10.58;66.02
64158;BME280;50449;51.528;5.076;2023-11-22T00:07:55;102632.31;;;10.57;66.07
64158;BME280;50449;51.528;5.076;2023-11-22T00:10:20;102636.91;;;10.56;66.09
64158;BME280;50449;51.528;5.076;2023-11-22T00:12:46;102639.78;;;10.55;65.93
64158;BME280;50449;51.528;5.076;2023-11-22T00:15:11;102637.28;;;10.53;65.93
64158;BME280;50449;51.528;5.076;2023-11-22T00:17:37;102636.66;;;10.51;65.81
64158;BME280;50449;51.528;5.076;2023-11-22T00:20:02;102641.22;;;10.51;65.88
64158;BME280;50449;51.528;5.076;2023-11-22T00:22:31;102641.41;;;10.49;65.91
64158;BME280;50449;51.528;5.076;2023-11-22T00:24:57;102637.88;;;10.49;66.01
64158;BME280;50449;51.528;5.076;2023-11-22T00:27:22;102640.75;;;10.47;66.03
64158;BME280;50449;51.528;5.076;2023-11-22T00:29:47;102647.22;;;10.46;65.98
64158;BME280;50449;51.528;5.076;2023-11-22T00:32:13;102644.69;;;10.45;65.91
64158;BME280;50449;51.528;5.076;2023-11-22T00:34:38;102652.16;;;10.43;66.15
64158;BME280;50449;51.528;5.076;2023-11-22T00:37:03;102652.34;;;10.41;65.79
64158;BME280;50449;51.528;5.076;2023-11-22T00:39:28;102659.59;;;10.40;65.84
64158;BME280;50449;51.528;5.076;2023-11-22T00:41:54;102653.59;;;10.38;65.85
64158;BME280;50449;51.528;5.076;2023-11-22T00:44:20;102653.75;;;10.37;65.80
64158;BME280;50449;51.528;5.076;2023-11-22T00:46:46;102658.34;;;10.36;65.91
64158;BME280;50449;51.528;5.076;2023-11-22T00:49:11;102657.69;;;10.34;65.74
64158;BME280;50449;51.528;5.076;2023-11-22T00:51:36;102665.97;;;10.33;65.67
64158;BME280;50449;51.528;5.076;2023-11-22T00:54:01;102661.81;;;10.30;65.79
64158;BME280;50449;51.528;5.076;2023-11-22T00:56:27;102659.31;;;10.29;65.79
64158;BME280;50449;51.528;5.076;2023-11-22T00:58:52;102653.09;;;10.28;65.85
64158;BME280;50449;51.528;5.076;2023-11-22T01:01:18;102658.63;;;10.27;65.74
64158;BME280;50449;51.528;5.076;2023-11-22T01:03:44;102662.38;;;10.26;65.85
64158;BME280;50449;51.528;5.076;2023-11-22T01:06:09;102653.41;;;10.25;65.88
64158;BME280;50449;51.528;5.076;2023-11-22T01:08:34;102664.44;;;10.24;65.71
64158;BME280;50449;51.528;5.076;2023-11-22T01:11:00;102660.25;;;10.21;65.79
64158;BME280;50449;51.528;5.076;2023-11-22T01:13:27;102666.66;;;10.20;65.67
64158;BME280;50449;51.528;5.076;2023-11-22T01:15:53;102665.00;;;10.19;65.74
64158;BME280;50449;51.528;5.076;2023-11-22T01:18:19;102677.84;;;10.17;65.68
64158;BME280;50449;51.528;5.076;2023-11-22T01:20:44;102701.16;;;10.18;65.79
64158;BME280;50449;51.528;5.076;2023-11-22T01:23:10;102708.59;;;10.16;65.72
64158;BME280;50449;51.528;5.076;2023-11-22T01:25:35;102711.47;;;10.14;65.55
64158;BME280;50449;51.528;5.076;2023-11-22T01:28:00;102718.09;;;10.12;65.68
64158;BME280;50449;51.528;5.076;2023-11-22T01:30:25;102720.16;;;10.10;65.64
64158;BME280;50449;51.528;5.076;2023-11-22T01:32:53;102723.88;;;10.09;65.88
64158;BME280;50449;51.528;5.076;2023-11-22T01:35:20;102722.19;;;10.08;65.67
64158;BME280;50449;51.528;5.076;2023-11-22T01:37:45;102725.94;;;10.07;65.55
64158;BME280;50449;51.528;5.076;2023-11-22T01:40:10;102735.09;;;10.06;65.77
64158;BME280;50449;51.528;5.076;2023-11-22T01:42:36;102750.63;;;10.04;65.70
64158;BME280;50449;51.528;5.076;2023-11-22T01:45:04;102747.28;;;10.02;65.68
64158;BME280;50449;51.528;5.076;2023-11-22T01:47:30;102744.75;;;10.00;65.70
64158;BME280;50449;51.528;5.076;2023-11-22T01:49:55;102749.31;;;10.00;65.63
64158;BME280;50449;51.528;5.076;2023-11-22T01:52:22;102748.66;;;9.97;65.42
64158;BME280;50449;51.528;5.076;2023-11-22T01:54:47;102733.50;;;9.96;65.61
64158;BME280;50449;51.528;5.076;2023-11-22T01:57:12;102734.53;;;9.95;65.60
64158;BME280;50449;51.528;5.076;2023-11-22T01:59:39;102748.22;;;9.94;65.44
64158;BME280;50449;51.528;5.076;2023-11-22T02:02:05;102753.78;;;9.92;65.55
64158;BME280;50449;51.528;5.076;2023-11-22T02:04:30;102738.63;;;9.91;65.73
64158;BME280;50449;51.528;5.076;2023-11-22T02:06:56;102741.50;;;9.90;65.53
64158;BME280;50449;51.528;5.076;2023-11-22T02:09:21;102740.91;;;9.88;65.36
64158;BME280;50449;51.528;5.076;2023-11-22T02:11:47;102740.91;;;9.88;65.60
64158;BME280;50449;51.528;5.076;2023-11-22T02:14:14;102738.53;;;9.85;65.63
64158;BME280;50449;51.528;5.076;2023-11-22T02:16:39;102732.31;;;9.84;65.49
64158;BME280;50449;51.528;5.076;2023-11-22T02:19:05;102729.81;;;9.83;65.51
64158;BME280;50449;51.528;5.076;2023-11-22T02:21:32;102732.72;;;9.81;65.23
64158;BME280;50449;51.528;5.076;2023-11-22T02:23:57;102746.38;;;9.80;65.56
64158;BME280;50449;51.528;5.076;2023-11-22T02:26:22;102741.19;;;9.78;65.38
64158;BME280;50449;51.528;5.076;2023-11-22T02:28:47;102744.06;;;9.77;65.38
64158;BME280;50449;51.528;5.076;2023-11-22T02:31:13;102750.50;;;9.75;65.36
64158;BME280;50449;51.528;5.076;2023-11-22T02:33:38;102750.66;;;9.74;65.50
64158;BME280;50449;51.528;5.076;2023-11-22T02:36:05;102746.31;;;9.73;65.21
64158;BME280;50449;51.528;5.076;2023-11-22T02:38:31;102752.72;;;9.72;65.47
64158;BME280;50449;51.528;5.076;2023-11-22T02:40:56;102750.22;;;9.70;65.32
64158;BME280;50449;51.528;5.076;2023-11-22T02:43:21;102756.63;;;9.69;65.23
64158;BME280;50449;51.528;5.076;2023-11-22T02:45:48;102752.44;;;9.67;65.37
64158;BME280;50449;51.528;5.076;2023-11-22T02:48:13;102741.84;;;9.65;65.23
64158;BME280;50449;51.528;5.076;2023-11-22T02:50:38;102748.25;;;9.64;65.40
64158;BME280;50449;51.528;5.076;2023-11-22T02:53:04;102739.50;;;9.62;65.14
64158;BME280;50449;51.528;5.076;2023-11-22T02:55:29;102743.25;;;9.61;65.13
64158;BME280;50449;51.528;5.076;2023-11-22T02:57:54;102741.56;;;9.60;65.32
64158;BME280;50449;51.528;5.076;2023-11-22T03:00:20;102743.63;;;9.58;65.27
64158;BME280;50449;51.528;5.076;2023-11-22T03:02:46;102746.50;;;9.57;65.13
64158;BME280;50449;51.528;5.076;2023-11-22T03:05:12;102745.84;;;9.54;65.30
64158;BME280;50449;51.528;5.076;2023-11-22T03:07:38;102750.41;;;9.54;65.21
64158;BME280;50449;51.528;5.076;2023-11-22T03:10:03;102750.41;;;9.54;65.21
64158;BME280;50449;51.528;5.076;2023-11-22T03:12:28;102752.44;;;9.52;65.20
64158;BME280;50449;51.528;5.076;2023-11-22T03:14:54;102740.00;;;9.51;65.12
64158;BME280;50449;51.528;5.076;2023-11-22T03:17:28;102738.31;;;9.50;65.22
64158;BME280;50449;51.528;5.076;2023-11-22T03:19:54;102734.97;;;9.48;65.06
64158;BME280;50449;51.528;5.076;2023-11-22T03:22:20;102737.00;;;9.46;65.12
64158;BME280;50449;51.528;5.076;2023-11-22T03:24:46;102737.19;;;9.44;65.16
64158;BME280;50449;51.528;5.076;2023-11-22T03:27:12;102751.72;;;9.43;65.26
64158;BME280;50449;51.528;5.076;2023-11-22T03:29:38;102755.41;;;9.42;65.21
64158;BME280;50449;51.528;5.076;2023-11-22T03:32:03;102760.19;;;9.40;65.21
64158;BME280;50449;51.528;5.076;2023-11-22T03:34:29;102766.59;;;9.39;65.06
64158;BME280;50449;51.528;5.076;2023-11-22T03:36:54;102763.22;;;9.37;65.18
64158;BME280;50449;51.528;5.076;2023-11-22T03:39:19;102765.94;;;9.37;65.17
64158;BME280;50449;51.528;5.076;2023-11-22T03:41:45;102766.97;;;9.36;65.08
64158;BME280;50449;51.528;5.076;2023-11-22T03:44:10;102783.31;;;9.35;65.13
64158;BME280;50449;51.528;5.076;2023-11-22T03:46:36;102780.81;;;9.33;65.08
64158;BME280;50449;51.528;5.076;2023-11-22T03:49:02;102787.41;;;9.30;65.15
64158;BME280;50449;51.528;5.076;2023-11-22T03:51:28;102798.38;;;9.29;65.01
64158;BME280;50449;51.528;5.076;2023-11-22T03:53:53;102811.03;;;9.28;64.91
64158;BME280;50449;51.528;5.076;2023-11-22T03:56:18;102818.28;;;9.28;64.88
64158;BME280;50449;51.528;5.076;2023-11-22T03:58:44;102823.03;;;9.26;64.99
64158;BME280;50449;51.528;5.076;2023-11-22T04:01:09;102830.28;;;9.25;64.97
64158;BME280;50449;51.528;5.076;2023-11-22T04:03:34;102832.31;;;9.23;65.23
64158;BME280;50449;51.528;5.076;2023-11-22T04:06:00;102837.88;;;9.22;65.08
64158;BME280;50449;51.528;5.076;2023-11-22T04:08:25;102844.31;;;9.21;64.96
64158;BME280;50449;51.528;5.076;2023-11-22T04:10:50;102842.66;;;9.20;64.97
64158;BME280;50449;51.528;5.076;2023-11-22T04:13:15;102842.97;;;9.17;64.90
64158;BME280;50449;51.528;5.076;2023-11-22T04:15:41;102842.97;;;9.17;64.90
64158;BME280;50449;51.528;5.076;2023-11-22T04:18:06;102845.00;;;9.15;64.89
64158;BME280;50449;51.528;5.076;2023-11-22T04:20:31;102836.09;;;9.14;64.82
64158;BME280;50449;51.528;5.076;2023-11-22T04:22:57;102841.69;;;9.13;64.93
64158;BME280;50449;51.528;5.076;2023-11-22T04:25:22;102843.72;;;9.10;64.83
64158;BME280;50449;51.528;5.076;2023-11-22T04:27:48;102839.31;;;9.09;64.84
64158;BME280;50449;51.528;5.076;2023-11-22T04:30:14;102839.53;;;9.08;65.00
64158;BME280;50449;51.528;5.076;2023-11-22T04:32:42;102850.47;;;9.06;64.88
64158;BME280;50449;51.528;5.076;2023-11-22T04:35:07;102849.66;;;9.06;64.88
64158;BME280;50449;51.528;5.076;2023-11-22T04:37:33;102854.38;;;9.04;64.63
64158;BME280;50449;51.528;5.076;2023-11-22T04:39:58;102841.94;;;9.03;64.71
64158;BME280;50449;51.528;5.076;2023-11-22T04:42:23;102849.34;;;9.01;64.68
64158;BME280;50449;51.528;5.076;2023-11-22T04:44:49;102853.09;;;9.00;64.76
64158;BME280;50449;51.528;5.076;2023-11-22T04:47:14;102868.41;;;8.99;64.82
64158;BME280;50449;51.528;5.076;2023-11-22T04:49:39;102864.19;;;8.97;64.85
64158;BME280;50449;51.528;5.076;2023-11-22T04:52:05;102865.22;;;8.96;64.53
64158;BME280;50449;51.528;5.076;2023-11-22T04:54:30;102870.78;;;8.94;64.82
64158;BME280;50449;51.528;5.076;2023-11-22T04:56:56;102871.81;;;8.93;64.64
64158;BME280;50449;51.528;5.076;2023-11-22T04:59:22;102873.84;;;8.91;64.74
64158;BME280;50449;51.528;5.076;2023-11-22T05:01:47;102870.31;;;8.91;64.81
64158;BME280;50449;51.528;5.076;2023-11-22T05:04:13;102875.03;;;8.88;64.91
64158;BME280;50449;51.528;5.076;2023-11-22T05:06:39;102874.22;;;8.88;64.79
64158;BME280;50449;51.528;5.076;2023-11-22T05:09:04;102872.56;;;8.87;64.59
64158;BME280;50449;51.528;5.076;2023-11-22T05:11:30;102862.78;;;8.86;64.68
64158;BME280;50449;51.528;5.076;2023-11-22T05:13:56;102862.97;;;8.84;64.75
64158;BME280;50449;51.528;5.076;2023-11-22T05:16:21;102867.69;;;8.82;64.64
64158;BME280;50449;51.528;5.076;2023-11-22T05:18:46;102864.13;;;8.82;64.71
64158;BME280;50449;51.528;5.076;2023-11-22T05:21:11;102858.13;;;8.80;64.85
64158;BME280;50449;51.528;5.076;2023-11-22T05:23:37;102862.63;;;8.79;64.82
64158;BME280;50449;51.528;5.076;2023-11-22T05:26:02;102851.03;;;8.79;64.71
64158;BME280;50449;51.528;5.076;2023-11-22T05:28:30;102856.63;;;8.77;64.72
64158;BME280;50449;51.528;5.076;2023-11-22T05:30:55;102856.78;;;8.76;64.62
64158;BME280;50449;51.528;5.076;2023-11-22T05:33:20;102858.81;;;8.74;64.68
64158;BME280;50449;51.528;5.076;2023-11-22T05:35:46;102857.97;;;8.73;64.77
64158;BME280;50449;51.528;5.076;2023-11-22T05:38:11;102860.00;;;8.71;64.54
64158;BME280;50449;51.528;5.076;2023-11-22T05:40:37;102861.88;;;8.71;64.59
64158;BME280;50449;51.528;5.076;2023-11-22T05:43:02;102860.19;;;8.70;64.60
64158;BME280;50449;51.528;5.076;2023-11-22T05:45:27;102858.50;;;8.69;64.82
64158;BME280;50449;51.528;5.076;2023-11-22T05:47:53;102857.84;;;8.66;64.58
64158;BME280;50449;51.528;5.076;2023-11-22T05:50:18;102863.22;;;8.66;64.92
64158;BME280;50449;51.528;5.076;2023-11-22T05:52:43;102874.19;;;8.65;64.49
64158;BME280;50449;51.528;5.076;2023-11-22T05:55:09;102879.75;;;8.63;64.58
64158;BME280;50449;51.528;5.076;2023-11-22T05:57:34;102892.38;;;8.63;64.56
64158;BME280;50449;51.528;5.076;2023-11-22T06:00:00;102898.81;;;8.62;64.65
64158;BME280;50449;51.528;5.076;2023-11-22T06:02:25;102892.56;;;8.61;64.69
64158;BME280;50449;51.528;5.076;2023-11-22T06:04:50;102891.91;;;8.59;64.63
64158;BME280;50449;51.528;5.076;2023-11-22T06:07:15;102889.22;;;8.59;64.63
64158;BME280;50449;51.528;5.076;2023-11-22T06:09:41;102884.84;;;8.58;64.66
64158;BME280;50449;51.528;5.076;2023-11-22T06:12:06;102887.72;;;8.57;64.71
64158;BME280;50449;51.528;5.076;2023-11-22T06:14:31;102894.09;;;8.56;64.58
64158;BME280;50449;51.528;5.076;2023-11-22T06:16:57;102909.44;;;8.55;64.78
64158;BME280;50449;51.528;5.076;2023-11-22T06:19:22;102906.75;;;8.55;64.48
64158;BME280;50449;51.528;5.076;2023-11-22T06:21:48;102908.78;;;8.53;64.66
64158;BME280;50449;51.528;5.076;2023-11-22T06:24:13;102906.06;;;8.53;64.71
64158;BME280;50449;51.528;5.076;2023-11-22T06:26:42;102908.97;;;8.52;64.79
64158;BME280;50449;51.528;5.076;2023-11-22T06:29:07;102911.66;;;8.52;64.65
64158;BME280;50449;51.528;5.076;2023-11-22T06:31:33;102909.13;;;8.50;64.69
64158;BME280;50449;51.528;5.076;2023-11-22T06:33:58;102916.38;;;8.50;64.68
64158;BME280;50449;51.528;5.076;2023-11-22T06:36:26;102904.94;;;8.48;64.78
64158;BME280;50449;51.528;5.076;2023-11-22T06:38:51;102913.00;;;8.48;64.68
64158;BME280;50449;51.528;5.076;2023-11-22T06:41:16;102937.41;;;8.46;64.72
64158;BME280;50449;51.528;5.076;2023-11-22T06:43:42;102933.06;;;8.45;64.81
64158;BME280;50449;51.528;5.076;2023-11-22T06:46:07;102929.53;;;8.44;64.62
64158;BME280;50449;51.528;5.076;2023-11-22T06:48:33;102925.97;;;8.44;64.66
64158;BME280;50449;51.528;5.076;2023-11-22T06:50:58;102920.59;;;8.44;64.73
64158;BME280;50449;51.528;5.076;2023-11-22T06:53:23;102904.63;;;8.42;64.60
64158;BME280;50449;51.528;5.076;2023-11-22T06:55:50;102892.16;;;8.41;64.68
64158;BME280;50449;51.528;5.076;2023-11-22T06:58:16;102898.56;;;8.40;64.63
64158;BME280;50449;51.528;5.076;2023-11-22T07:00:43;102896.00;;;8.39;64.64
64158;BME280;50449;51.528;5.076;2023-11-22T07:03:09;102896.00;;;8.39;64.83
64158;BME280;50449;51.528;5.076;2023-11-22T07:05:35;102891.63;;;8.38;64.77
64158;BME280;50449;51.528;5.076;2023-11-22T07:08:01;102885.41;;;8.37;64.67
64158;BME280;50449;51.528;5.076;2023-11-22T07:10:27;102885.41;;;8.37;64.81
64158;BME280;50449;51.528;5.076;2023-11-22T07:12:52;102891.81;;;8.36;64.84
64158;BME280;50449;51.528;5.076;2023-11-22T07:15:17;102894.69;;;8.35;64.59
64158;BME280;50449;51.528;5.076;2023-11-22T07:17:43;102905.47;;;8.35;64.81
64158;BME280;50449;51.528;5.076;2023-11-22T07:20:08;102904.63;;;8.34;64.77
64158;BME280;50449;51.528;5.076;2023-11-22T07:22:37;102908.31;;;8.33;64.82
64158;BME280;50449;51.528;5.076;2023-11-22T07:25:03;102902.94;;;8.33;64.86
64158;BME280;50449;51.528;5.076;2023-11-22T07:27:28;102907.66;;;8.31;64.92
64158;BME280;50449;51.528;5.076;2023-11-22T07:29:54;102916.75;;;8.30;64.85
64158;BME280;50449;51.528;5.076;2023-11-22T07:32:19;102915.09;;;8.29;64.83
64158;BME280;50449;51.528;5.076;2023-11-22T07:34:46;102924.16;;;8.28;64.89
64158;BME280;50449;51.528;5.076;2023-11-22T07:37:12;102919.78;;;8.27;64.89
64158;BME280;50449;51.528;5.076;2023-11-22T07:39:38;102901.94;;;8.26;64.97
64158;BME280;50449;51.528;5.076;2023-11-22T07:42:05;102916.28;;;8.27;65.01
64158;BME280;50449;51.528;5.076;2023-11-22T07:44:33;102909.19;;;8.26;65.01
64158;BME280;50449;51.528;5.076;2023-11-22T07:46:58;102915.59;;;8.24;64.99
64158;BME280;50449;51.528;5.076;2023-11-22T07:49:25;102921.97;;;8.23;64.99
64158;BME280;50449;51.528;5.076;2023-11-22T07:51:50;102927.38;;;8.23;64.96
64158;BME280;50449;51.528;5.076;2023-11-22T07:54:18;102933.78;;;8.22;65.12
64158;BME280;50449;51.528;5.076;2023-11-22T07:56:43;102942.69;;;8.23;65.01
64158;BME280;50449;51.528;5.076;2023-11-22T07:59:09;102949.09;;;8.22;64.95
64158;BME280;50449;51.528;5.076;2023-11-22T08:01:35;102948.44;;;8.20;65.09
64158;BME280;50449;51.528;5.076;2023-11-22T08:04:01;102957.34;;;8.20;65.22
64158;BME280;50449;51.528;5.076;2023-11-22T08:06:27;102963.75;;;8.19;65.14
64158;BME280;50449;51.528;5.076;2023-11-22T08:08:53;102964.75;;;8.18;65.22
64158;BME280;50449;51.528;5.076;2023-11-22T08:11:18;102962.03;;;8.18;65.25
64158;BME280;50449;51.528;5.076;2023-11-22T08:13:44;102963.91;;;8.18;65.24
64158;BME280;50449;51.528;5.076;2023-11-22T08:16:10;102961.38;;;8.16;65.18
64158;BME280;50449;51.528;5.076;2023-11-22T08:18:38;102964.94;;;8.17;65.26
64158;BME280;50449;51.528;5.076;2023-11-22T08:21:04;102959.72;;;8.15;65.14
64158;BME280;50449;51.528;5.076;2023-11-22T08:23:29;102962.41;;;8.15;65.21
64158;BME280;50449;51.528;5.076;2023-11-22T08:25:55;102959.72;;;8.15;65.20
64158;BME280;50449;51.528;5.076;2023-11-22T08:28:22;102973.16;;;8.15;65.22
64158;BME280;50449;51.528;5.076;2023-11-22T08:30:47;102976.00;;;8.14;65.21
64158;BME280;50449;51.528;5.076;2023-11-22T08:33:12;102964.41;;;8.13;65.38
64158;BME280;50449;51.528;5.076;2023-11-22T08:35:37;102968.13;;;8.12;65.28
64158;BME280;50449;51.528;5.076;2023-11-22T08:38:04;102968.97;;;8.13;65.24
64158;BME280;50449;51.528;5.076;2023-11-22T08:40:33;102978.06;;;8.12;65.24
64158;BME280;50449;51.528;5.076;2023-11-22T08:43:02;102978.06;;;8.12;65.34
64158;BME280;50449;51.528;5.076;2023-11-22T08:45:27;102989.66;;;8.12;65.36
64158;BME280;50449;51.528;5.076;2023-11-22T08:47:54;102980.75;;;8.12;65.54
64158;BME280;50449;51.528;5.076;2023-11-22T08:50:19;102980.91;;;8.10;65.42
64158;BME280;50449;51.528;5.076;2023-11-22T08:52:45;102987.97;;;8.11;65.25
64158;BME280;50449;51.528;5.076;2023-11-22T08:55:10;102993.53;;;8.10;65.51
64158;BME280;50449;51.528;5.076;2023-11-22T08:57:36;102998.94;;;8.10;65.38
64158;BME280;50449;51.528;5.076;2023-11-22T09:00:02;103008.00;;;8.09;65.45
64158;BME280;50449;51.528;5.076;2023-11-22T09:02:31;103004.47;;;8.08;65.53
64158;BME280;50449;51.528;5.076;2023-11-22T09:04:57;102990.19;;;8.08;65.55
64158;BME280;50449;51.528;5.076;2023-11-22T09:07:22;103000.94;;;8.08;65.33
64158;BME280;50449;51.528;5.076;2023-11-22T09:09:49;103002.78;;;8.07;65.53
64158;BME280;50449;51.528;5.076;2023-11-22T09:12:14;103001.97;;;8.07;65.39
64158;BME280;50449;51.528;5.076;2023-11-22T09:14:40;103003.78;;;8.06;65.60
64158;BME280;50449;51.528;5.076;2023-11-22T09:17:08;103002.97;;;8.06;65.48
64158;BME280;50449;51.528;5.076;2023-11-22T09:19:34;103000.25;;;8.06;65.69
64158;BME280;50449;51.528;5.076;2023-11-22T09:22:01;102994.06;;;8.05;65.55
64158;BME280;50449;51.528;5.076;2023-11-22T09:24:26;103001.09;;;8.06;65.59
64158;BME280;50449;51.528;5.076;2023-11-22T09:26:52;103013.72;;;8.06;65.44
64158;BME280;50449;51.528;5.076;2023-11-22T09:29:17;103019.09;;;8.06;65.62
64158;BME280;50449;51.528;5.076;2023-11-22T09:31:43;103010.19;;;8.05;65.72
64158;BME280;50449;51.528;5.076;2023-11-22T09:34:11;103011.88;;;8.06;65.61
64158;BME280;50449;51.528;5.076;2023-11-22T09:36:36;103015.59;;;8.05;65.53
64158;BME280;50449;51.528;5.076;2023-11-22T09:39:02;103010.19;;;8.05;65.65
64158;BME280;50449;51.528;5.076;2023-11-22T09:41:28;103014.56;;;8.06;65.70
64158;BME280;50449;51.528;5.076;2023-11-22T09:43:53;103011.03;;;8.06;65.57
64158;BME280;50449;51.528;5.076;2023-11-22T09:46:19;103003.78;;;8.06;65.53
64158;BME280;50449;51.528;5.076;2023-11-22T09:48:46;103011.03;;;8.06;65.69
64158;BME280;50449;51.528;5.076;2023-11-22T09:51:15;103015.59;;;8.05;65.63
64158;BME280;50449;51.528;5.076;2023-11-22T09:56:21;103022.47;;;8.08;65.68
64158;BME280;50449;51.528;5.076;2023-11-22T09:58:48;103017.25;;;8.06;65.67
64158;BME280;50449;51.528;5.076;2023-11-22T10:01:16;103007.34;;;8.07;65.64
64158;BME280;50449;51.528;5.076;2023-11-22T10:03:42;103011.03;;;8.06;65.76
64158;BME280;50449;51.528;5.076;2023-11-22T10:06:07;103005.50;;;8.07;65.66
64158;BME280;50449;51.528;5.076;2023-11-22T10:08:33;103003.63;;;8.08;65.77
64158;BME280;50449;51.528;5.076;2023-11-22T10:10:58;103017.94;;;8.08;65.50
64158;BME280;50449;51.528;5.076;2023-11-22T10:13:24;103018.13;;;8.07;65.75
64158;BME280;50449;51.528;5.076;2023-11-22T10:15:50;103030.72;;;8.06;65.83
64158;BME280;50449;51.528;5.076;2023-11-22T10:18:16;103022.00;;;8.04;65.74
64158;BME280;50449;51.528;5.076;2023-11-22T10:20:43;103019.28;;;8.04;65.93
64158;BME280;50449;51.528;5.076;2023-11-22T10:23:11;103025.66;;;8.03;65.70
64158;BME280;50449;51.528;5.076;2023-11-22T10:25:45;103026.50;;;8.03;65.88
64158;BME280;50449;51.528;5.076;2023-11-22T10:28:12;103029.19;;;8.03;65.78
64158;BME280;50449;51.528;5.076;2023-11-22T10:30:37;103026.50;;;8.03;66.00
64158;BME280;50449;51.528;5.076;2023-11-22T10:33:05;103028.34;;;8.03;65.96
64158;BME280;50449;51.528;5.076;2023-11-22T10:35:30;103015.75;;;8.03;66.00
64158;BME280;50449;51.528;5.076;2023-11-22T10:37:56;103009.53;;;8.03;65.80
64158;BME280;50449;51.528;5.076;2023-11-22T10:40:21;103003.31;;;8.02;65.84
64158;BME280;50449;51.528;5.076;2023-11-22T10:42:47;102999.59;;;8.03;66.13
64158;BME280;50449;51.528;5.076;2023-11-22T10:45:14;102990.69;;;8.03;65.91
64158;BME280;50449;51.528;5.076;2023-11-22T10:47:40;102981.63;;;8.04;65.88
64158;BME280;50449;51.528;5.076;2023-11-22T10:50:07;102977.06;;;8.05;65.92
64158;BME280;50449;51.528;5.076;2023-11-22T10:52:37;102976.03;;;8.06;65.96
64158;BME280;50449;51.528;5.076;2023-11-22T10:55:05;102976.72;;;8.08;65.76
64158;BME280;50449;51.528;5.076;2023-11-22T10:57:38;102983.97;;;8.07;65.93
64158;BME280;50449;51.528;5.076;2023-11-22T11:00:06;102974.03;;;8.08;65.78
64158;BME280;50449;51.528;5.076;2023-11-22T11:02:37;102968.81;;;8.06;66.07
64158;BME280;50449;51.528;5.076;2023-11-22T11:05:08;102959.88;;;8.06;65.89
64158;BME280;50449;51.528;5.076;2023-11-22T11:07:38;102954.50;;;8.06;66.02
64158;BME280;50449;51.528;5.076;2023-11-22T11:10:06;102949.97;;;8.06;65.79
64158;BME280;50449;51.528;5.076;2023-11-22T11:12:31;102948.97;;;8.07;65.93
64158;BME280;50449;51.528;5.076;2023-11-22T11:14:57;102952.34;;;8.09;66.14
64158;BME280;50449;51.528;5.076;2023-11-22T11:17:23;102953.16;;;8.10;66.03
64158;BME280;50449;51.528;5.076;2023-11-22T11:19:49;102949.63;;;8.09;66.10
64158;BME280;50449;51.528;5.076;2023-11-22T11:22:14;102952.34;;;8.09;66.08
64158;BME280;50449;51.528;5.076;2023-11-22T11:24:41;102944.06;;;8.11;66.16
64158;BME280;50449;51.528;5.076;2023-11-22T11:27:12;102940.38;;;8.12;66.02
64158;BME280;50449;51.528;5.076;2023-11-22T11:29:37;102943.91;;;8.12;66.01
64158;BME280;50449;51.528;5.076;2023-11-22T11:32:51;102950.13;;;8.13;65.95
64158;BME280;50449;51.528;5.076;2023-11-22T11:34:51;102936.66;;;8.13;66.16
64158;BME280;50449;51.528;5.076;2023-11-22T11:37:19;102935.81;;;8.12;66.05
64158;BME280;50449;51.528;5.076;2023-11-22T11:39:44;102920.50;;;8.13;65.89
64158;BME280;50449;51.528;5.076;2023-11-22T11:42:10;102924.03;;;8.13;66.34
64158;BME280;50449;51.528;5.076;2023-11-22T11:44:36;102910.22;;;8.16;66.11
64158;BME280;50449;51.528;5.076;2023-11-22T11:47:10;102900.31;;;8.17;65.85
64158;BME280;50449;51.528;5.076;2023-11-22T11:49:36;102898.63;;;8.16;66.06
64158;BME280;50449;51.528;5.076;2023-11-22T11:52:02;102902.16;;;8.16;66.15
64158;BME280;50449;51.528;5.076;2023-11-22T11:54:28;102896.59;;;8.18;65.99
64158;BME280;50449;51.528;5.076;2023-11-22T11:56:58;102879.63;;;8.17;66.10
64158;BME280;50449;51.528;5.076;2023-11-22T11:59:23;102874.22;;;8.17;66.32
64158;BME280;50449;51.528;5.076;2023-11-22T12:01:52;102875.06;;;8.18;66.19
64158;BME280;50449;51.528;5.076;2023-11-22T12:04:18;102878.44;;;8.20;66.15
64158;BME280;50449;51.528;5.076;2023-11-22T12:06:43;102889.03;;;8.21;66.19
64158;BME280;50449;51.528;5.076;2023-11-22T12:09:08;102880.09;;;8.21;66.10
64158;BME280;50449;51.528;5.076;2023-11-22T12:11:34;102877.25;;;8.22;66.15
64158;BME280;50449;51.528;5.076;2023-11-22T12:13:59;102887.19;;;8.22;66.17
64158;BME280;50449;51.528;5.076;2023-11-22T12:16:24;102883.44;;;8.23;66.26
64158;BME280;50449;51.528;5.076;2023-11-22T12:18:50;102877.25;;;8.22;66.11
64158;BME280;50449;51.528;5.076;2023-11-22T12:21:16;102876.22;;;8.23;66.26
64158;BME280;50449;51.528;5.076;2023-11-22T12:23:43;102875.22;;;8.24;66.09
64158;BME280;50449;51.528;5.076;2023-11-22T12:26:12;102872.53;;;8.24;66.15
64158;BME280;50449;51.528;5.076;2023-11-22T12:28:39;102870.50;;;8.27;66.08
64158;BME280;50449;51.528;5.076;2023-11-22T12:31:11;102875.69;;;8.28;66.09
64158;BME280;50449;51.528;5.076;2023-11-22T12:33:37;102887.50;;;8.27;66.22
64158;BME280;50449;51.528;5.076;2023-11-22T12:36:04;102879.41;;;8.27;66.16
64158;BME280;50449;51.528;5.076;2023-11-22T12:38:30;102884.59;;;8.29;66.14
64158;BME280;50449;51.528;5.076;2023-11-22T12:40:58;102892.69;;;8.29;66.03
64158;BME280;50449;51.528;5.076;2023-11-22T12:43:24;102886.31;;;8.30;66.23
64158;BME280;50449;51.528;5.076;2023-11-22T12:46:02;102878.22;;;8.30;65.96
64158;BME280;50449;51.528;5.076;2023-11-22T12:48:27;102879.88;;;8.31;66.10
64158;BME280;50449;51.528;5.076;2023-11-22T12:50:57;102875.34;;;8.31;65.88
64158;BME280;50449;51.528;5.076;2023-11-22T12:53:23;102875.16;;;8.33;66.01